KLBL

Liberal Mid-America Regional Airport

Liberal, Kansas, USA
METAR KLBL 211456Z AUTO 16006KT 10SM CLR 02/M02 A2969 RMK AO2 SLP064 T00171017 55008 FZRANO
Observed Flight Rules
Jan-21 @ 14:56 UTC (an hour ago) Visual Flight Rules
Wind Visibility Clouds
160° at 6 knots 10 miles
  • Clear skies
Temperatures Readings
Current 2°C / 36°F
Dewpoint -2°C / 28°F
Humidity 75%
Altimeter 29.69" Hg
Pressure 1006.4 hPa
Elevation 879
METAR KLBL 211456Z AUTO 16006KT 10SM CLR 02/M02 A2969 RMK AO2 SLP064 T00171017 55008 FZRANO
Observed Flight Rules
Jan-21 @ 14:56 UTC
(an hour ago)
VFR
Wind Visibility
160° at 6 knots 10 miles
Clouds
  • Clear skies
Temperature Dewpoint
2°C / 36°F -2°C / 28°F
Humidity Altimeter Pressure
75% 29.69" Hg 1006.4 hPa